createdAt,value
2022-09-30T00:00:56.257Z,77248.44
2022-09-30T00:03:24.169Z,77272.31
2022-09-30T00:05:59.027Z,77298.13
2022-09-30T00:08:25.951Z,77310.06
2022-09-30T00:11:07.178Z,77290.19
2022-09-30T00:13:35.948Z,77290.19
2022-09-30T00:16:03.239Z,77314.03
2022-09-30T00:18:29.849Z,77327.97
2022-09-30T00:20:56.632Z,77331.94
2022-09-30T00:23:24.249Z,77341.88
2022-09-30T00:25:50.817Z,77343.84
2022-09-30T00:28:18.153Z,77347.84
2022-09-30T00:30:44.597Z,77361.75
2022-09-30T00:33:11.200Z,77365.72
2022-09-30T00:35:38.089Z,77375.66
2022-09-30T00:38:04.620Z,77377.66
2022-09-30T00:40:32.203Z,77379.63
2022-09-30T00:42:59.148Z,77387.59
2022-09-30T00:45:29.232Z,77373.66
2022-09-30T00:48:13.160Z,77381.63
2022-09-30T00:50:47.177Z,77379.63
2022-09-30T00:53:19.023Z,77377.66
2022-09-30T00:55:51.265Z,77371.69
2022-09-30T00:58:34.497Z,77375.66
2022-09-30T01:01:01.956Z,77377.66
2022-09-30T01:03:36.734Z,77377.66
2022-09-30T01:06:03.897Z,77379.63
2022-09-30T01:08:33.548Z,77381.63
2022-09-30T01:11:03.400Z,77385.59
2022-09-30T01:13:34.679Z,77375.66
2022-09-30T01:16:43.982Z,77363.72
2022-09-30T01:19:16.473Z,77363.72
2022-09-30T01:22:19.827Z,77355.78
2022-09-30T01:24:56.287Z,77353.78
2022-09-30T01:28:00.387Z,77343.84
2022-09-30T01:30:58.009Z,77355.78
2022-09-30T01:34:03.029Z,77357.78
2022-09-30T01:37:02.764Z,77347.84
2022-09-30T01:39:47.174Z,77353.78
2022-09-30T01:42:27.412Z,77361.75
2022-09-30T01:45:08.367Z,77377.66
2022-09-30T01:48:00.448Z,77377.66
2022-09-30T01:50:33.788Z,77375.66
2022-09-30T01:53:19.582Z,77367.72
2022-09-30T01:55:56.559Z,77377.66
2022-09-30T01:58:32.220Z,77365.72
2022-09-30T02:01:02.557Z,77363.72
2022-09-30T02:03:37.171Z,77361.75
2022-09-30T02:06:18.447Z,77361.75
2022-09-30T02:08:55.299Z,77381.63
2022-09-30T02:11:36.242Z,77381.63
2022-09-30T02:14:10.566Z,77385.59
2022-09-30T02:16:53.544Z,77401.50
2022-09-30T02:19:23.279Z,77399.50
2022-09-30T02:21:59.912Z,77399.50
2022-09-30T02:24:32.101Z,77387.59
2022-09-30T02:27:01.483Z,77395.53
2022-09-30T02:29:34.842Z,77377.66
2022-09-30T02:32:07.845Z,77397.53
2022-09-30T02:34:45.561Z,77413.44
2022-09-30T02:37:25.400Z,77427.34
2022-09-30T02:40:31.538Z,77439.25
2022-09-30T02:42:58.311Z,77421.38
2022-09-30T02:45:25.055Z,77417.41
2022-09-30T02:48:13.521Z,77433.31
2022-09-30T02:50:54.377Z,77425.34
2022-09-30T02:53:26.528Z,77425.34
2022-09-30T02:56:26.767Z,77443.25
2022-09-30T02:58:56.803Z,77453.19
2022-09-30T03:01:24.523Z,77459.13
2022-09-30T03:04:02.616Z,77463.13
2022-09-30T03:06:29.523Z,77447.22
2022-09-30T03:08:56.194Z,77431.31
2022-09-30T03:11:26.165Z,77449.19
2022-09-30T03:14:24.282Z,77457.16
2022-09-30T03:17:28.423Z,77463.13
2022-09-30T03:20:27.374Z,77427.34
2022-09-30T03:23:30.359Z,77463.13
2022-09-30T03:26:13.388Z,77471.06
2022-09-30T03:29:08.339Z,77467.09
2022-09-30T03:32:10.126Z,77475.03
2022-09-30T03:34:55.695Z,77502.88
2022-09-30T03:37:30.342Z,77486.97
2022-09-30T03:40:21.292Z,77498.91
2022-09-30T03:42:55.030Z,77534.69
2022-09-30T03:45:35.280Z,77528.72
2022-09-30T03:48:07.179Z,77516.78
2022-09-30T03:50:37.141Z,77508.84
2022-09-30T03:53:04.462Z,77514.78
2022-09-30T03:55:33.454Z,77492.94
2022-09-30T03:57:59.916Z,77522.75
2022-09-30T04:00:26.455Z,77534.69
2022-09-30T04:02:57.165Z,77542.63
2022-09-30T04:05:24.428Z,77532.69
2022-09-30T04:07:50.891Z,77536.66
2022-09-30T04:10:17.414Z,77536.66
2022-09-30T04:12:44.128Z,77550.56
2022-09-30T04:15:10.873Z,77542.63
2022-09-30T04:17:37.549Z,77564.50
2022-09-30T04:20:04.372Z,77568.47
2022-09-30T04:22:30.854Z,77534.69
2022-09-30T04:24:57.308Z,77536.66
2022-09-30T04:27:23.884Z,77554.56
2022-09-30T04:29:50.392Z,77550.56
2022-09-30T04:32:16.864Z,77542.63
2022-09-30T04:34:43.381Z,77550.56
2022-09-30T04:37:11.083Z,77566.47
2022-09-30T04:39:37.845Z,77584.38
2022-09-30T04:42:04.345Z,77566.47
2022-09-30T04:44:30.888Z,77558.53
2022-09-30T04:46:57.374Z,77592.31
2022-09-30T04:49:24.494Z,77590.34
2022-09-30T04:51:51.061Z,77606.22
2022-09-30T04:54:17.944Z,77608.22
2022-09-30T04:56:44.434Z,77592.31
2022-09-30T04:59:11.526Z,77598.28
2022-09-30T05:01:39.439Z,77622.13
2022-09-30T05:04:06.251Z,77646.00
2022-09-30T05:06:32.960Z,77649.97
2022-09-30T05:09:00.571Z,77630.09
2022-09-30T05:11:27.801Z,77638.03
2022-09-30T05:13:55.626Z,77632.06
2022-09-30T05:16:22.285Z,77638.03
2022-09-30T05:18:49.537Z,77646.00
2022-09-30T05:21:20.662Z,77630.09
2022-09-30T05:23:47.984Z,77628.09
2022-09-30T05:26:14.955Z,77651.94
2022-09-30T05:28:42.487Z,77624.13
2022-09-30T05:31:09.069Z,77644.00
2022-09-30T05:33:36.031Z,77630.09
2022-09-30T05:36:05.978Z,77644.00
2022-09-30T05:38:33.048Z,77644.00
2022-09-30T05:41:07.615Z,77638.03
2022-09-30T05:43:34.780Z,77624.13
2022-09-30T05:46:01.410Z,77618.16
2022-09-30T05:48:27.970Z,77602.25
2022-09-30T05:50:56.380Z,77622.13
2022-09-30T05:53:22.963Z,77628.09
2022-09-30T05:55:50.482Z,77622.13
2022-09-30T05:58:17.444Z,77610.22
2022-09-30T06:00:47.457Z,77604.25
2022-09-30T06:03:14.916Z,77598.28
2022-09-30T06:05:41.791Z,77596.28
2022-09-30T06:08:08.300Z,77570.44
2022-09-30T06:10:35.836Z,77568.47
2022-09-30T06:13:05.708Z,77556.53
2022-09-30T06:15:32.298Z,77568.47
2022-09-30T06:17:58.841Z,77572.44
2022-09-30T06:20:25.769Z,77564.50
2022-09-30T06:22:52.394Z,77550.56
2022-09-30T06:25:18.911Z,77560.50
2022-09-30T06:27:46.866Z,77556.53
2022-09-30T06:30:13.985Z,77558.53
2022-09-30T06:32:40.600Z,77536.66
2022-09-30T06:35:07.365Z,77514.78
2022-09-30T06:37:35.035Z,77512.81
2022-09-30T06:40:01.811Z,77524.72
2022-09-30T06:42:28.264Z,77522.75
2022-09-30T06:44:55.772Z,77508.84
2022-09-30T06:47:25.620Z,77510.81
2022-09-30T06:49:53.189Z,77528.72
2022-09-30T06:52:20.155Z,77520.75
2022-09-30T06:54:47.248Z,77522.75
2022-09-30T06:57:13.824Z,77488.97
2022-09-30T06:59:40.526Z,77483.00
2022-09-30T07:02:07.039Z,77490.94
2022-09-30T07:04:33.622Z,77483.00
2022-09-30T07:07:00.167Z,77477.03
2022-09-30T07:09:26.895Z,77465.09
2022-09-30T07:11:53.620Z,77447.22
2022-09-30T07:14:21.111Z,77437.28
2022-09-30T07:16:47.671Z,77425.34
2022-09-30T07:19:14.718Z,77421.38
2022-09-30T07:21:41.174Z,77419.38
2022-09-30T07:24:09.385Z,77407.47
2022-09-30T07:26:35.904Z,77383.59
2022-09-30T07:29:02.556Z,77379.63
2022-09-30T07:31:34.003Z,77369.69
2022-09-30T07:34:01.993Z,77349.81
2022-09-30T07:36:33.270Z,77355.78
2022-09-30T07:39:05.479Z,77312.06
2022-09-30T07:41:33.663Z,77316.03
2022-09-30T07:44:00.304Z,77306.09
2022-09-30T07:46:31.969Z,77296.16
2022-09-30T07:49:04.162Z,77290.19
2022-09-30T07:51:39.826Z,77274.28
2022-09-30T07:54:15.481Z,77240.50
2022-09-30T07:57:09.782Z,77234.53
2022-09-30T07:59:32.539Z,77230.56
2022-09-30T08:01:59.086Z,77224.59
2022-09-30T08:04:27.327Z,77222.63
2022-09-30T08:07:00.343Z,77212.69
2022-09-30T08:09:29.371Z,77198.75
2022-09-30T08:11:56.210Z,77180.88
2022-09-30T08:14:25.306Z,77155.03
2022-09-30T08:16:54.164Z,77135.16
2022-09-30T08:19:22.727Z,77133.19
2022-09-30T08:21:50.265Z,77129.19
2022-09-30T08:24:16.996Z,77109.31
2022-09-30T08:26:43.675Z,77089.44
2022-09-30T08:29:16.937Z,77085.47
2022-09-30T08:31:47.913Z,77057.66
2022-09-30T08:34:15.227Z,77057.66
2022-09-30T08:36:41.899Z,77053.69
2022-09-30T08:39:10.996Z,77035.78
2022-09-30T08:42:04.980Z,77023.88
2022-09-30T08:44:49.422Z,77004.00
2022-09-30T08:47:33.675Z,76992.06
2022-09-30T08:50:26.013Z,76978.16
2022-09-30T08:53:03.426Z,76956.28
2022-09-30T08:55:38.596Z,76950.31
2022-09-30T08:58:07.059Z,76934.44
2022-09-30T09:00:34.180Z,76926.47
2022-09-30T09:03:03.271Z,76898.66
2022-09-30T09:05:36.046Z,76894.69
2022-09-30T09:08:52.377Z,76876.78
2022-09-30T09:11:43.443Z,76852.94
2022-09-30T09:14:23.230Z,76841.03
2022-09-30T09:17:06.954Z,76821.16
2022-09-30T09:19:47.341Z,76803.25
2022-09-30T09:22:14.144Z,76791.34
2022-09-30T09:24:47.379Z,76779.41
2022-09-30T09:27:37.579Z,76763.53
2022-09-30T09:30:17.517Z,76733.72
2022-09-30T09:32:49.852Z,76727.75
2022-09-30T09:35:26.344Z,76711.84
2022-09-30T09:38:26.545Z,76674.09
2022-09-30T09:41:12.891Z,76654.22
2022-09-30T09:43:49.186Z,76634.34
2022-09-30T09:46:34.440Z,76616.47
2022-09-30T09:49:30.161Z,76590.63
2022-09-30T09:51:59.786Z,76588.63
2022-09-30T09:54:29.891Z,76578.72
2022-09-30T09:56:56.461Z,76564.78
2022-09-30T09:59:26.153Z,76548.91
2022-09-30T10:01:54.221Z,76542.94
2022-09-30T10:04:26.023Z,76513.13
2022-09-30T10:07:01.500Z,76503.19
2022-09-30T10:09:28.048Z,76489.28
2022-09-30T10:12:06.660Z,76475.38
2022-09-30T10:14:35.092Z,76457.50
2022-09-30T10:17:04.439Z,76447.56
2022-09-30T10:19:33.912Z,76437.63
2022-09-30T10:22:09.864Z,76445.56
2022-09-30T10:24:38.056Z,76427.69
2022-09-30T10:27:25.056Z,76421.72
2022-09-30T10:29:51.527Z,76417.75
2022-09-30T10:32:18.781Z,76409.81
2022-09-30T10:34:45.435Z,76397.88
2022-09-30T10:37:17.063Z,76374.03
2022-09-30T10:39:50.559Z,76372.03
2022-09-30T10:42:27.169Z,76356.16
2022-09-30T10:45:01.939Z,76352.19
2022-09-30T10:47:34.065Z,76352.19
2022-09-30T10:50:08.265Z,76350.19
2022-09-30T10:52:58.167Z,76338.25
2022-09-30T10:55:24.707Z,76326.34
2022-09-30T10:57:53.552Z,76326.34
2022-09-30T11:00:25.943Z,76340.25
2022-09-30T11:03:01.967Z,76326.34
2022-09-30T11:05:36.317Z,76320.38
2022-09-30T11:08:05.010Z,76320.38
2022-09-30T11:10:56.547Z,76312.44
2022-09-30T11:13:35.527Z,76294.56
2022-09-30T11:16:20.677Z,76302.50
2022-09-30T11:19:24.041Z,76292.56
2022-09-30T11:22:00.519Z,76286.59
2022-09-30T11:24:40.812Z,76280.66
2022-09-30T11:27:45.006Z,76256.78
2022-09-30T11:30:39.233Z,76252.81
2022-09-30T11:33:34.248Z,76211.09
2022-09-30T11:36:31.090Z,76205.13
2022-09-30T11:39:33.903Z,76199.19
2022-09-30T11:42:13.075Z,76215.06
2022-09-30T11:44:42.822Z,76203.16
2022-09-30T11:47:29.338Z,76187.25
2022-09-30T11:50:05.986Z,76197.19
2022-09-30T11:52:39.602Z,76213.09
2022-09-30T11:55:31.316Z,76219.03
2022-09-30T11:58:22.446Z,76236.94
2022-09-30T12:00:58.737Z,76244.88
2022-09-30T12:03:38.318Z,76213.09
2022-09-30T12:06:30.509Z,76181.28
2022-09-30T12:09:06.292Z,76163.41
2022-09-30T12:11:37.753Z,76139.56
2022-09-30T12:14:13.276Z,76113.75
2022-09-30T12:16:40.492Z,76105.78
2022-09-30T12:19:33.120Z,76097.84
2022-09-30T12:22:35.625Z,76079.97
2022-09-30T12:25:13.873Z,76074.00
2022-09-30T12:27:55.163Z,76076.00
2022-09-30T12:30:23.966Z,76079.97
2022-09-30T12:33:11.523Z,76060.09
2022-09-30T12:35:38.129Z,76038.22
2022-09-30T12:38:25.863Z,76040.22
2022-09-30T12:41:26.905Z,76030.28
2022-09-30T12:44:05.893Z,76030.28
2022-09-30T12:47:11.360Z,76040.22
2022-09-30T12:49:41.267Z,76074.00
2022-09-30T12:52:15.923Z,76091.88
2022-09-30T12:55:02.476Z,76129.63
2022-09-30T12:57:39.039Z,76145.53
2022-09-30T13:00:15.868Z,76155.47
2022-09-30T13:02:47.598Z,76159.44
2022-09-30T13:05:32.545Z,76125.66
2022-09-30T13:08:05.206Z,76125.66
2022-09-30T13:10:32.946Z,76119.69
2022-09-30T13:13:11.367Z,76151.50
2022-09-30T13:15:41.215Z,76167.38
2022-09-30T13:18:19.947Z,76193.22
2022-09-30T13:20:56.617Z,76203.16
2022-09-30T13:23:35.535Z,76201.16
2022-09-30T13:26:03.089Z,76199.19
2022-09-30T13:28:37.064Z,76169.38
2022-09-30T13:31:32.386Z,76149.50
2022-09-30T13:34:02.061Z,76151.50
2022-09-30T13:36:50.524Z,76159.44
2022-09-30T13:39:22.972Z,76161.44
2022-09-30T13:42:01.594Z,76163.41
2022-09-30T13:44:44.290Z,76157.44
2022-09-30T13:47:35.322Z,76169.38
2022-09-30T13:50:16.339Z,76163.41
2022-09-30T13:52:45.853Z,76177.31
2022-09-30T13:55:22.473Z,76167.38
2022-09-30T13:58:03.265Z,76169.38
2022-09-30T14:00:55.824Z,76167.38
2022-09-30T14:04:02.422Z,76173.34
2022-09-30T14:06:37.641Z,76157.44
2022-09-30T14:09:33.533Z,76153.47
2022-09-30T14:12:46.430Z,76161.44
2022-09-30T14:15:22.255Z,76175.34
2022-09-30T14:18:10.072Z,76173.34
2022-09-30T14:20:36.495Z,76179.31
2022-09-30T14:23:03.041Z,76177.31
2022-09-30T14:25:38.645Z,76169.38
2022-09-30T14:28:18.941Z,76163.41
2022-09-30T14:31:08.185Z,76155.47
2022-09-30T14:33:36.320Z,76135.59
2022-09-30T14:36:06.302Z,76129.63
2022-09-30T14:38:36.222Z,76117.72
2022-09-30T14:41:13.091Z,76093.88
2022-09-30T14:43:45.737Z,76095.84
2022-09-30T14:46:16.770Z,76097.84
2022-09-30T14:48:45.347Z,76105.78
2022-09-30T14:51:16.251Z,76105.78
2022-09-30T14:53:56.053Z,76147.50
2022-09-30T14:56:36.619Z,76167.38
2022-09-30T14:59:18.996Z,76183.28
2022-09-30T15:01:48.908Z,76193.22
2022-09-30T15:04:18.973Z,76215.06
2022-09-30T15:06:49.339Z,76163.41
2022-09-30T15:09:29.870Z,76070.03
2022-09-30T15:11:58.328Z,75966.72
2022-09-30T15:14:25.216Z,75936.91
2022-09-30T15:16:59.475Z,75980.63
2022-09-30T15:19:36.964Z,76050.16
2022-09-30T15:22:06.373Z,76091.88
2022-09-30T15:24:35.203Z,76135.59
2022-09-30T15:27:03.352Z,76177.31
2022-09-30T15:29:29.902Z,76203.16
2022-09-30T15:32:04.953Z,76236.94
2022-09-30T15:34:31.689Z,76262.75
2022-09-30T15:37:11.787Z,76276.66
2022-09-30T15:40:00.970Z,76294.56
2022-09-30T15:42:45.482Z,76300.50
2022-09-30T15:45:36.013Z,76310.44
2022-09-30T15:48:07.726Z,76328.34
2022-09-30T15:50:40.183Z,76328.34
2022-09-30T15:53:14.626Z,76336.28
2022-09-30T15:55:46.204Z,76326.34
2022-09-30T15:58:33.612Z,76330.31
2022-09-30T16:01:15.763Z,76340.25
2022-09-30T16:04:00.316Z,76342.25
2022-09-30T16:06:50.567Z,76356.16
2022-09-30T16:09:20.279Z,76366.09
2022-09-30T16:12:15.871Z,76376.03
2022-09-30T16:14:46.841Z,76380.00
2022-09-30T16:17:18.114Z,76391.91
2022-09-30T16:20:06.928Z,76399.88
2022-09-30T16:22:50.388Z,76401.84
2022-09-30T16:25:21.751Z,76411.78
2022-09-30T16:27:53.427Z,76417.75
2022-09-30T16:30:20.283Z,76433.66
2022-09-30T16:32:50.602Z,76457.50
2022-09-30T16:35:20.706Z,76475.38
2022-09-30T16:37:48.729Z,76497.22
2022-09-30T16:40:19.172Z,76521.09
2022-09-30T16:42:45.629Z,76542.94
2022-09-30T16:45:14.793Z,76574.72
2022-09-30T16:47:42.452Z,76588.63
2022-09-30T16:50:38.664Z,76620.44
2022-09-30T16:53:05.552Z,76632.34
2022-09-30T16:55:32.144Z,76648.25
2022-09-30T16:57:59.461Z,76670.13
2022-09-30T17:00:27.514Z,76680.06
2022-09-30T17:02:54.511Z,76697.94
2022-09-30T17:05:26.138Z,76703.91
2022-09-30T17:07:55.286Z,76721.78
2022-09-30T17:10:30.777Z,76727.75
2022-09-30T17:13:00.477Z,76745.63
2022-09-30T17:15:28.907Z,76757.56
2022-09-30T17:17:55.678Z,76747.63
2022-09-30T17:20:22.967Z,76769.47
2022-09-30T17:22:50.076Z,76791.34
2022-09-30T17:25:17.530Z,76799.28
2022-09-30T17:31:35.041Z,76833.06
2022-09-30T17:34:07.838Z,76843.00
2022-09-30T17:36:35.311Z,76858.91
2022-09-30T17:39:02.158Z,76866.84
2022-09-30T17:41:47.337Z,76880.78
2022-09-30T17:44:13.765Z,76890.72
2022-09-30T17:46:42.608Z,76894.69
2022-09-30T17:49:10.203Z,76894.69
2022-09-30T17:51:37.707Z,76906.59
2022-09-30T17:54:06.783Z,76912.56
2022-09-30T17:56:34.092Z,76918.53
2022-09-30T17:59:02.075Z,76922.50
2022-09-30T18:01:29.614Z,76926.47
2022-09-30T18:04:00.947Z,76922.50
2022-09-30T18:06:28.797Z,76932.44
2022-09-30T18:08:55.823Z,76942.38
2022-09-30T18:11:24.919Z,76952.31
2022-09-30T18:14:01.962Z,76948.34
2022-09-30T18:16:30.900Z,76964.25
2022-09-30T18:19:03.257Z,76972.19
2022-09-30T18:21:30.639Z,76982.13
2022-09-30T18:23:57.700Z,76994.06
2022-09-30T18:26:25.490Z,77004.00
2022-09-30T18:28:52.877Z,77013.94
2022-09-30T18:31:28.442Z,77009.94
2022-09-30T18:33:55.681Z,77004.00
2022-09-30T18:36:23.220Z,77005.97
2022-09-30T18:38:49.726Z,77013.94
2022-09-30T18:41:16.385Z,77023.88
2022-09-30T18:43:45.215Z,77027.84
2022-09-30T18:46:13.915Z,77039.75
2022-09-30T18:48:41.164Z,77039.75
2022-09-30T18:51:08.669Z,77049.69
2022-09-30T18:53:35.747Z,77039.75
2022-09-30T18:56:04.379Z,77047.72
2022-09-30T18:58:32.015Z,77047.72
2022-09-30T19:01:05.903Z,77059.63
2022-09-30T19:03:33.079Z,77063.63
2022-09-30T19:06:09.338Z,77083.50
2022-09-30T19:08:35.872Z,77079.50
2022-09-30T19:11:13.971Z,77081.50
2022-09-30T19:13:46.321Z,77083.50
2022-09-30T19:16:13.008Z,77083.50
2022-09-30T19:19:04.954Z,77091.44
2022-09-30T19:21:36.315Z,77091.44
2022-09-30T19:24:04.717Z,77095.41
2022-09-30T19:26:32.785Z,77087.47
2022-09-30T19:28:59.789Z,77093.44
2022-09-30T19:31:27.107Z,77099.38
2022-09-30T19:33:57.053Z,77097.41
2022-09-30T19:36:26.690Z,77105.34
2022-09-30T19:39:10.493Z,77103.38
2022-09-30T19:41:38.144Z,77099.38
2022-09-30T19:44:04.756Z,77111.31
2022-09-30T19:46:31.256Z,77115.28
2022-09-30T19:48:58.156Z,77113.31
2022-09-30T19:51:24.769Z,77115.28
2022-09-30T19:54:02.912Z,77123.25
2022-09-30T19:56:30.907Z,77131.19
2022-09-30T19:59:00.179Z,77127.22
2022-09-30T20:01:31.367Z,77135.16
2022-09-30T20:04:04.657Z,77131.19
2022-09-30T20:06:32.326Z,77137.16
2022-09-30T20:09:00.353Z,77131.19
2022-09-30T20:11:33.582Z,77147.09
2022-09-30T20:14:20.536Z,77153.06
2022-09-30T20:16:48.524Z,77159.00
2022-09-30T20:19:16.463Z,77164.97
2022-09-30T20:21:43.655Z,77164.97
2022-09-30T20:24:12.574Z,77168.94
2022-09-30T20:26:40.290Z,77166.97
2022-09-30T20:29:10.232Z,77170.94
2022-09-30T20:31:37.908Z,77170.94
2022-09-30T20:34:05.152Z,77176.91
2022-09-30T20:36:32.361Z,77164.97
2022-09-30T20:39:00.796Z,77186.84
2022-09-30T20:41:28.432Z,77184.84
2022-09-30T20:43:54.972Z,77182.88
2022-09-30T20:46:22.671Z,77182.88
2022-09-30T20:48:49.613Z,77190.81
2022-09-30T20:51:20.519Z,77186.84
2022-09-30T20:53:51.810Z,77170.94
2022-09-30T20:56:20.834Z,77166.97
2022-09-30T20:58:48.729Z,77143.13
2022-09-30T21:01:20.707Z,77153.06
2022-09-30T21:03:52.533Z,77151.06
2022-09-30T21:06:23.794Z,77155.03
2022-09-30T21:08:52.635Z,77153.06
2022-09-30T21:11:19.379Z,77163.00
2022-09-30T21:13:48.211Z,77174.91
2022-09-30T21:16:17.007Z,77178.88
2022-09-30T21:18:44.737Z,77188.81
2022-09-30T21:21:14.188Z,77194.78
2022-09-30T21:23:41.214Z,77192.81
2022-09-30T21:26:10.472Z,77200.75
2022-09-30T21:28:37.046Z,77212.69
2022-09-30T21:31:09.012Z,77220.63
2022-09-30T21:33:36.075Z,77214.66
2022-09-30T21:36:05.524Z,77208.69
2022-09-30T21:38:33.795Z,77208.69
2022-09-30T21:41:02.703Z,77206.72
2022-09-30T21:43:35.058Z,77204.72
2022-09-30T21:46:04.043Z,77206.72
2022-09-30T21:48:32.590Z,77204.72
2022-09-30T21:51:00.020Z,77210.69
2022-09-30T21:53:27.348Z,77206.72
2022-09-30T21:55:54.791Z,77200.75
2022-09-30T21:58:26.065Z,77212.69
2022-09-30T22:00:56.768Z,77200.75
2022-09-30T22:03:23.807Z,77200.75
2022-09-30T22:05:52.303Z,77196.78
2022-09-30T22:08:19.106Z,77202.75
2022-09-30T22:10:45.767Z,77204.72
2022-09-30T22:13:12.730Z,77208.69
2022-09-30T22:15:39.521Z,77216.66
2022-09-30T22:18:10.386Z,77228.56
2022-09-30T22:20:38.633Z,77232.56
2022-09-30T22:23:05.226Z,77248.44
2022-09-30T22:25:32.672Z,77246.47
2022-09-30T22:27:59.605Z,77242.50
2022-09-30T22:30:29.331Z,77250.44
2022-09-30T22:33:14.412Z,77252.44
2022-09-30T22:35:59.231Z,77258.38
2022-09-30T22:38:25.837Z,77262.38
2022-09-30T22:40:55.795Z,77264.34
2022-09-30T22:43:24.511Z,77270.31
2022-09-30T22:46:20.469Z,77272.31
2022-09-30T22:48:48.041Z,77252.44
2022-09-30T22:51:15.753Z,77266.34
2022-09-30T22:53:42.516Z,77266.34
2022-09-30T22:56:08.951Z,77270.31
2022-09-30T22:58:36.906Z,77268.31
2022-09-30T23:01:04.040Z,77270.31
2022-09-30T23:03:30.623Z,77282.25
2022-09-30T23:06:01.889Z,77282.25
2022-09-30T23:08:30.342Z,77280.25
2022-09-30T23:10:57.512Z,77286.22
2022-09-30T23:13:23.944Z,77276.28
2022-09-30T23:15:58.100Z,77278.25
2022-09-30T23:18:24.642Z,77270.31
2022-09-30T23:20:59.345Z,77260.38
2022-09-30T23:23:25.849Z,77262.38
2022-09-30T23:26:08.147Z,77260.38
2022-09-30T23:28:35.320Z,77260.38
2022-09-30T23:31:04.043Z,77262.38
2022-09-30T23:33:30.824Z,77254.41
2022-09-30T23:35:59.431Z,77236.53
2022-09-30T23:38:26.723Z,77232.56
2022-09-30T23:40:58.883Z,77226.59
2022-09-30T23:43:31.278Z,77240.50
2022-09-30T23:46:01.316Z,77238.50
2022-09-30T23:48:28.407Z,77220.63
2022-09-30T23:50:55.199Z,77218.63
2022-09-30T23:53:23.203Z,77224.59
2022-09-30T23:56:04.887Z,77218.63
2022-09-30T23:58:33.260Z,77216.66
